createdAt,value
2023-04-23T00:01:59.080Z,11.83
2023-04-23T00:04:27.103Z,11.53
2023-04-23T00:06:54.788Z,11.90
2023-04-23T00:09:23.936Z,13.73
2023-04-23T00:11:50.908Z,12.37
2023-04-23T00:14:17.802Z,11.70
2023-04-23T00:16:45.109Z,11.87
2023-04-23T00:19:11.842Z,11.07
2023-04-23T00:21:38.583Z,13.13
2023-04-23T00:24:05.597Z,12.17
2023-04-23T00:26:32.313Z,12.87
2023-04-23T00:28:58.973Z,12.70
2023-04-23T00:31:27.179Z,12.80
2023-04-23T00:33:54.167Z,12.97
2023-04-23T00:36:20.926Z,12.57
2023-04-23T00:38:48.075Z,13.50
2023-04-23T00:41:15.676Z,12.80
2023-04-23T00:43:43.042Z,12.33
2023-04-23T00:46:10.537Z,13.93
2023-04-23T00:48:38.655Z,13.70
2023-04-23T00:51:06.276Z,12.87
2023-04-23T00:53:33.904Z,12.50
2023-04-23T00:56:03.376Z,13.93
2023-04-23T00:58:30.129Z,13.17
2023-04-23T01:00:57.803Z,12.63
2023-04-23T01:03:26.516Z,13.13
2023-04-23T01:05:53.598Z,13.43
2023-04-23T01:08:23.335Z,13.27
2023-04-23T01:10:50.750Z,13.33
2023-04-23T01:13:17.656Z,13.43
2023-04-23T01:15:45.399Z,13.90
2023-04-23T01:18:13.237Z,13.00
2023-04-23T01:20:40.182Z,13.17
2023-04-23T01:23:07.974Z,13.73
2023-04-23T01:25:35.296Z,13.90
2023-04-23T01:28:02.713Z,14.87
2023-04-23T01:30:29.915Z,14.00
2023-04-23T01:32:57.661Z,15.77
2023-04-23T01:35:25.634Z,14.13
2023-04-23T01:37:55.164Z,14.27
2023-04-23T01:40:21.959Z,14.53
2023-04-23T01:42:49.274Z,13.97
2023-04-23T01:45:17.654Z,14.40
2023-04-23T01:47:44.420Z,15.27
2023-04-23T01:50:11.436Z,14.83
2023-04-23T01:52:38.572Z,14.17
2023-04-23T01:55:05.609Z,14.97
2023-04-23T01:57:32.613Z,14.90
2023-04-23T02:00:08.688Z,14.00
2023-04-23T02:02:36.001Z,15.63
2023-04-23T02:05:04.674Z,14.63
2023-04-23T02:07:34.636Z,15.47
2023-04-23T02:10:02.487Z,15.87
2023-04-23T02:12:29.165Z,15.20
2023-04-23T02:14:55.945Z,16.37
2023-04-23T02:17:23.250Z,16.50
2023-04-23T02:19:50.367Z,17.33
2023-04-23T02:22:18.091Z,16.63
2023-04-23T02:24:47.178Z,15.57
2023-04-23T02:27:13.958Z,16.33
2023-04-23T02:29:41.178Z,17.03
2023-04-23T02:32:09.000Z,17.47
2023-04-23T02:34:36.214Z,16.77
2023-04-23T02:37:05.022Z,17.60
2023-04-23T02:39:32.028Z,18.17
2023-04-23T02:41:59.064Z,17.73
2023-04-23T02:44:26.095Z,17.43
2023-04-23T02:46:53.203Z,16.43
2023-04-23T02:49:22.591Z,17.93
2023-04-23T02:51:49.260Z,18.50
2023-04-23T02:54:16.420Z,16.93
2023-04-23T02:56:43.096Z,18.47
2023-04-23T02:59:10.275Z,19.67
2023-04-23T03:01:37.080Z,17.37
2023-04-23T03:04:03.925Z,17.27
2023-04-23T03:06:31.892Z,19.20
2023-04-23T03:08:58.565Z,18.67
2023-04-23T03:11:25.240Z,18.43
2023-04-23T03:13:51.959Z,19.27
2023-04-23T03:16:18.720Z,18.03
2023-04-23T03:18:45.535Z,19.40
2023-04-23T03:21:12.871Z,19.67
2023-04-23T03:23:39.532Z,19.37
2023-04-23T03:26:06.204Z,20.20
2023-04-23T03:28:33.195Z,21.33
2023-04-23T03:30:59.898Z,21.80
2023-04-23T03:33:26.761Z,20.80
2023-04-23T03:35:53.407Z,20.93
2023-04-23T03:38:20.826Z,20.60
2023-04-23T03:40:47.537Z,22.70
2023-04-23T03:43:14.238Z,22.80
2023-04-23T03:45:41.010Z,23.57
2023-04-23T03:48:08.139Z,23.70
2023-04-23T03:50:38.892Z,24.33
2023-04-23T03:53:08.120Z,24.17
2023-04-23T03:55:34.836Z,24.57
2023-04-23T03:58:03.040Z,23.60
2023-04-23T04:00:29.804Z,25.77
2023-04-23T04:02:56.659Z,27.80
2023-04-23T04:05:23.520Z,29.70
2023-04-23T04:07:50.210Z,27.90
2023-04-23T04:10:17.045Z,26.43
2023-04-23T04:12:45.479Z,28.00
2023-04-23T04:15:12.540Z,26.83
2023-04-23T04:17:39.352Z,27.83
2023-04-23T04:20:08.366Z,26.57
2023-04-23T04:22:35.170Z,29.00
2023-04-23T04:25:01.846Z,28.47
2023-04-23T04:27:28.513Z,29.17
2023-04-23T04:29:55.175Z,24.37
2023-04-23T04:32:23.393Z,28.47
2023-04-23T04:34:50.675Z,27.03
2023-04-23T04:37:17.688Z,26.50
2023-04-23T04:39:44.407Z,27.60
2023-04-23T04:42:13.090Z,26.43
2023-04-23T04:44:40.061Z,26.67
2023-04-23T04:47:09.820Z,25.50
2023-04-23T04:49:37.051Z,27.77
2023-04-23T04:52:03.704Z,25.73
2023-04-23T04:54:30.385Z,21.87
2023-04-23T04:56:57.076Z,23.33
2023-04-23T04:59:23.750Z,22.77
2023-04-23T05:01:50.553Z,24.83
2023-04-23T05:04:17.388Z,20.67
2023-04-23T05:06:44.355Z,20.77
2023-04-23T05:09:11.743Z,21.07
2023-04-23T05:11:39.549Z,20.10
2023-04-23T05:14:06.231Z,21.00
2023-04-23T05:16:33.353Z,19.90
2023-04-23T05:19:00.165Z,19.60
2023-04-23T05:21:27.630Z,18.03
2023-04-23T05:23:55.469Z,18.47
2023-04-23T05:26:22.171Z,18.87
2023-04-23T05:28:48.986Z,18.03
2023-04-23T05:31:15.854Z,17.97
2023-04-23T05:33:49.785Z,16.30
2023-04-23T05:36:17.609Z,18.27
2023-04-23T05:38:44.254Z,16.87
2023-04-23T05:41:11.133Z,17.00
2023-04-23T05:43:37.824Z,17.33
2023-04-23T05:46:07.154Z,16.10
2023-04-23T05:48:34.490Z,17.30
2023-04-23T05:51:01.345Z,17.03
2023-04-23T05:53:28.587Z,15.37
2023-04-23T05:55:55.308Z,16.57
2023-04-23T05:58:22.127Z,14.33
2023-04-23T06:00:50.030Z,13.43
2023-04-23T06:03:16.971Z,14.10
2023-04-23T06:05:43.875Z,14.47
2023-04-23T06:08:10.709Z,13.27
2023-04-23T06:10:37.460Z,12.70
2023-04-23T06:13:04.364Z,12.03
2023-04-23T06:15:31.264Z,12.83
2023-04-23T06:17:58.035Z,12.40
2023-04-23T06:20:25.776Z,11.77
2023-04-23T06:22:52.452Z,12.27
2023-04-23T06:25:19.243Z,11.90
2023-04-23T06:27:46.132Z,11.17
2023-04-23T06:30:13.105Z,10.07
2023-04-23T06:32:39.854Z,10.33
2023-04-23T06:35:08.082Z,10.73
2023-04-23T06:37:35.264Z,10.47
2023-04-23T06:40:01.989Z,9.67
2023-04-23T06:42:28.763Z,8.63
2023-04-23T06:44:56.596Z,8.87
2023-04-23T06:47:23.306Z,8.07
2023-04-23T06:49:50.151Z,8.90
2023-04-23T06:52:16.894Z,7.77
2023-04-23T06:54:44.022Z,8.60
2023-04-23T06:57:10.980Z,8.40
2023-04-23T06:59:37.655Z,7.50
2023-04-23T07:02:04.392Z,7.53
2023-04-23T07:04:31.341Z,7.97
2023-04-23T07:06:58.360Z,7.43
2023-04-23T07:09:25.480Z,7.30
2023-04-23T07:11:52.548Z,7.40
2023-04-23T07:14:19.246Z,6.50
2023-04-23T07:16:46.349Z,5.90
2023-04-23T07:19:13.193Z,5.73
2023-04-23T07:21:40.828Z,6.43
2023-04-23T07:24:07.759Z,6.50
2023-04-23T07:26:35.644Z,5.80
2023-04-23T07:29:03.772Z,5.70
2023-04-23T07:31:31.040Z,5.60
2023-04-23T07:33:57.798Z,4.80
2023-04-23T07:36:24.649Z,5.40
2023-04-23T07:38:51.455Z,4.87
2023-04-23T07:41:18.395Z,5.60
2023-04-23T07:43:45.529Z,5.07
2023-04-23T07:46:12.434Z,5.47
2023-04-23T07:48:39.250Z,5.17
2023-04-23T07:51:06.658Z,4.80
2023-04-23T07:53:33.420Z,5.00
2023-04-23T07:56:00.945Z,4.83
2023-04-23T07:58:27.676Z,4.17
2023-04-23T08:00:54.487Z,4.07
2023-04-23T08:03:22.228Z,4.20
2023-04-23T08:05:49.094Z,4.10
2023-04-23T08:08:15.966Z,4.67
2023-04-23T08:10:42.910Z,6.97
2023-04-23T08:13:09.699Z,7.67
2023-04-23T08:15:36.505Z,4.43
2023-04-23T08:18:04.561Z,3.57
2023-04-23T08:20:32.386Z,3.53
2023-04-23T08:22:59.293Z,3.47
2023-04-23T08:25:26.028Z,3.40
2023-04-23T08:27:52.789Z,3.50
2023-04-23T08:30:19.554Z,3.63
2023-04-23T08:32:53.978Z,3.87
2023-04-23T08:35:21.256Z,3.40
2023-04-23T08:37:47.960Z,3.10
2023-04-23T08:40:14.996Z,3.27
2023-04-23T08:42:43.860Z,3.97
2023-04-23T08:45:11.405Z,3.03
2023-04-23T08:47:43.309Z,3.00
2023-04-23T08:50:18.249Z,3.23
2023-04-23T08:52:49.722Z,3.20
2023-04-23T08:55:18.693Z,2.80
2023-04-23T08:57:46.930Z,2.97
2023-04-23T09:00:15.725Z,2.87
2023-04-23T09:02:47.648Z,3.20
2023-04-23T09:05:15.401Z,2.80
2023-04-23T09:07:42.646Z,2.97
2023-04-23T09:10:11.622Z,2.90
2023-04-23T09:12:40.761Z,2.70
2023-04-23T09:15:11.104Z,2.70
2023-04-23T09:17:46.209Z,2.73
2023-04-23T09:20:14.670Z,2.50
2023-04-23T09:22:55.211Z,2.50
2023-04-23T09:25:24.067Z,2.53
2023-04-23T09:27:52.498Z,2.20
2023-04-23T09:30:19.980Z,2.50
2023-04-23T09:32:47.572Z,2.17
2023-04-23T09:35:16.654Z,2.37
2023-04-23T09:37:52.448Z,3.10
2023-04-23T09:40:23.212Z,2.60
2023-04-23T09:42:54.057Z,2.90
2023-04-23T09:45:21.110Z,2.40
2023-04-23T09:47:53.628Z,2.30
2023-04-23T09:50:38.357Z,2.07
2023-04-23T09:53:07.137Z,2.00
2023-04-23T09:55:39.194Z,1.85
2023-04-23T09:58:11.225Z,1.90
2023-04-23T10:00:39.777Z,1.93
2023-04-23T10:03:08.785Z,2.10
2023-04-23T10:08:13.917Z,2.37
2023-04-23T10:10:55.110Z,2.53
2023-04-23T10:13:28.391Z,2.30
2023-04-23T10:15:57.765Z,1.90
2023-04-23T10:18:28.762Z,1.87
2023-04-23T10:20:56.134Z,1.85
2023-04-23T10:23:24.386Z,2.20
2023-04-23T10:25:54.873Z,1.70
2023-04-23T10:28:28.484Z,1.80
2023-04-23T10:30:57.162Z,1.95
2023-04-23T10:33:31.863Z,1.95
2023-04-23T10:36:02.965Z,2.08
2023-04-23T10:38:30.242Z,1.95
2023-04-23T10:41:01.025Z,1.93
2023-04-23T10:43:28.023Z,1.57
2023-04-23T10:45:55.211Z,1.58
2023-04-23T10:48:22.754Z,1.90
2023-04-23T10:51:17.385Z,1.70
2023-04-23T10:53:45.894Z,1.90
2023-04-23T10:56:13.212Z,2.78
2023-04-23T10:58:52.281Z,2.30
2023-04-23T11:01:20.698Z,2.00
2023-04-23T11:03:48.511Z,2.10
2023-04-23T11:06:20.669Z,2.00
2023-04-23T11:08:54.570Z,1.90
2023-04-23T11:11:46.008Z,1.73
2023-04-23T11:14:15.946Z,1.70
2023-04-23T11:16:43.377Z,1.73
2023-04-23T11:19:17.316Z,1.83
2023-04-23T11:22:00.201Z,1.48
2023-04-23T11:24:42.507Z,1.83
2023-04-23T11:27:11.885Z,1.88
2023-04-23T11:29:40.960Z,1.83
2023-04-23T11:32:13.031Z,1.80
2023-04-23T11:34:41.819Z,1.77
2023-04-23T11:37:11.141Z,1.63
2023-04-23T11:39:38.992Z,1.92
2023-04-23T11:42:20.115Z,1.63
2023-04-23T11:44:47.896Z,1.83
2023-04-23T11:47:18.813Z,1.60
2023-04-23T11:49:46.174Z,1.67
2023-04-23T11:52:14.546Z,1.80
2023-04-23T11:54:42.101Z,1.80
2023-04-23T11:57:09.977Z,1.80
2023-04-23T11:59:36.825Z,1.40
2023-04-23T12:02:03.584Z,1.60
2023-04-23T12:04:31.547Z,1.88
2023-04-23T12:06:59.209Z,1.52
2023-04-23T12:09:28.149Z,1.50
2023-04-23T12:11:56.781Z,1.67
2023-04-23T12:14:31.210Z,1.42
2023-04-23T12:17:08.464Z,1.45
2023-04-23T12:19:35.591Z,1.40
2023-04-23T12:22:03.943Z,1.75
2023-04-23T12:24:44.648Z,1.48
2023-04-23T12:27:15.672Z,1.52
2023-04-23T12:29:42.905Z,1.50
2023-04-23T12:32:11.563Z,1.23
2023-04-23T12:34:52.882Z,1.50
2023-04-23T12:37:25.559Z,1.60
2023-04-23T12:39:53.027Z,1.40
2023-04-23T12:42:20.179Z,1.48
2023-04-23T12:44:47.586Z,1.48
2023-04-23T12:47:19.534Z,1.40
2023-04-23T12:49:46.894Z,1.90
2023-04-23T12:52:14.225Z,1.73
2023-04-23T12:54:41.674Z,1.58
2023-04-23T12:57:12.726Z,1.63
2023-04-23T12:59:39.907Z,1.70
2023-04-23T13:02:07.451Z,1.60
2023-04-23T13:04:36.096Z,1.48
2023-04-23T13:07:03.252Z,1.75
2023-04-23T13:09:30.243Z,1.80
2023-04-23T13:11:57.513Z,1.60
2023-04-23T13:14:24.237Z,1.90
2023-04-23T13:16:52.696Z,1.60
2023-04-23T13:19:19.856Z,1.80
2023-04-23T13:21:46.544Z,2.40
2023-04-23T13:24:13.675Z,2.00
2023-04-23T13:26:40.782Z,1.95
2023-04-23T13:29:07.498Z,1.92
2023-04-23T13:31:34.736Z,1.77
2023-04-23T13:34:02.933Z,1.40
2023-04-23T13:36:29.809Z,1.80
2023-04-23T13:38:56.667Z,1.50
2023-04-23T13:41:23.378Z,1.90
2023-04-23T13:43:50.384Z,1.80
2023-04-23T13:46:17.555Z,1.90
2023-04-23T13:48:44.670Z,1.40
2023-04-23T13:51:26.077Z,1.67
2023-04-23T13:53:59.193Z,1.98
2023-04-23T13:56:27.096Z,1.80
2023-04-23T13:59:02.251Z,2.30
2023-04-23T14:01:31.924Z,2.80
2023-04-23T14:03:59.150Z,3.75
2023-04-23T14:06:26.827Z,2.70
2023-04-23T14:08:53.871Z,3.70
2023-04-23T14:11:22.432Z,2.65
2023-04-23T14:13:49.296Z,8.65
2023-04-23T14:16:17.421Z,5.95
2023-04-23T14:18:44.574Z,3.10
2023-04-23T14:21:11.290Z,2.67
2023-04-23T14:24:30.367Z,1.95
2023-04-23T14:26:57.442Z,1.85
2023-04-23T14:29:34.503Z,1.88
2023-04-23T14:32:01.411Z,1.50
2023-04-23T14:34:28.271Z,1.63
2023-04-23T14:36:55.293Z,2.40
2023-04-23T14:39:23.386Z,2.00
2023-04-23T14:41:50.203Z,1.77
2023-04-23T14:44:17.305Z,2.10
2023-04-23T14:46:44.420Z,2.08
2023-04-23T14:49:11.493Z,1.87
2023-04-23T14:51:38.506Z,1.85
2023-04-23T14:54:05.775Z,2.00
2023-04-23T14:56:32.858Z,1.97
2023-04-23T14:58:59.957Z,2.30
2023-04-23T15:01:26.855Z,2.00
2023-04-23T15:03:54.342Z,2.17
2023-04-23T15:06:21.316Z,2.30
2023-04-23T15:08:48.507Z,2.43
2023-04-23T15:11:15.366Z,2.13
2023-04-23T15:13:57.813Z,2.30
2023-04-23T15:16:47.541Z,2.50
2023-04-23T15:19:17.921Z,2.70
2023-04-23T15:21:45.652Z,2.80
2023-04-23T15:24:12.791Z,2.67
2023-04-23T15:26:39.969Z,2.67
2023-04-23T15:29:10.256Z,2.73
2023-04-23T15:31:38.335Z,2.80
2023-04-23T15:34:06.210Z,3.10
2023-04-23T15:36:33.320Z,2.97
2023-04-23T15:39:00.377Z,2.90
2023-04-23T15:41:27.468Z,3.10
2023-04-23T15:43:55.104Z,3.13
2023-04-23T15:46:21.863Z,3.30
2023-04-23T15:48:49.069Z,3.10
2023-04-23T15:51:16.154Z,3.17
2023-04-23T15:53:43.006Z,3.20
2023-04-23T15:56:09.738Z,3.50
2023-04-23T15:58:36.626Z,3.50
2023-04-23T16:01:03.560Z,3.00
2023-04-23T16:03:30.422Z,3.70
2023-04-23T16:05:57.409Z,3.40
2023-04-23T16:08:24.063Z,3.60
2023-04-23T16:10:50.833Z,4.13
2023-04-23T16:13:17.605Z,4.13
2023-04-23T16:15:44.307Z,5.43
2023-04-23T16:18:10.999Z,4.87
2023-04-23T16:20:37.841Z,4.10
2023-04-23T16:23:06.528Z,3.90
2023-04-23T16:25:33.355Z,4.30
2023-04-23T16:28:00.636Z,4.47
2023-04-23T16:30:27.279Z,4.60
2023-04-23T16:32:53.987Z,3.70
2023-04-23T16:35:20.808Z,3.10
2023-04-23T16:37:47.714Z,3.10
2023-04-23T16:40:15.687Z,3.00
2023-04-23T16:42:43.210Z,3.07
2023-04-23T16:45:10.327Z,2.73
2023-04-23T16:47:37.808Z,3.27
2023-04-23T16:50:05.037Z,3.37
2023-04-23T16:52:31.801Z,2.97
2023-04-23T16:54:58.464Z,2.70
2023-04-23T16:57:25.720Z,3.07
2023-04-23T16:59:53.413Z,3.03
2023-04-23T17:02:21.575Z,2.60
2023-04-23T17:04:48.723Z,2.40
2023-04-23T17:07:15.891Z,2.77
2023-04-23T17:09:43.324Z,2.37
2023-04-23T17:12:10.419Z,2.50
2023-04-23T17:14:37.514Z,2.57
2023-04-23T17:17:04.612Z,2.50
2023-04-23T17:19:31.449Z,2.60
2023-04-23T17:21:58.775Z,2.87
2023-04-23T17:24:25.882Z,3.20
2023-04-23T17:26:52.547Z,2.50
2023-04-23T17:29:19.234Z,2.30
2023-04-23T17:31:45.964Z,2.93
2023-04-23T17:34:12.649Z,2.40
2023-04-23T17:36:39.800Z,2.20
2023-04-23T17:39:07.417Z,2.60
2023-04-23T17:41:34.190Z,2.30
2023-04-23T17:44:01.006Z,2.50
2023-04-23T17:46:28.003Z,2.47
2023-04-23T17:48:54.736Z,2.30
2023-04-23T17:51:21.754Z,2.10
2023-04-23T17:53:50.470Z,2.00
2023-04-23T17:56:17.644Z,2.00
2023-04-23T17:58:45.142Z,2.20
2023-04-23T18:01:12.272Z,2.10
2023-04-23T18:03:39.529Z,2.07
2023-04-23T18:06:08.458Z,2.40
2023-04-23T18:08:36.458Z,2.17
2023-04-23T18:11:04.543Z,2.00
2023-04-23T18:13:31.520Z,2.07
2023-04-23T18:15:58.249Z,2.00
2023-04-23T18:18:25.958Z,1.90
2023-04-23T18:20:52.813Z,2.10
2023-04-23T18:23:22.482Z,2.00
2023-04-23T18:25:49.382Z,1.97
2023-04-23T18:28:16.563Z,2.20
2023-04-23T18:30:43.409Z,2.00
2023-04-23T18:33:19.339Z,2.30
2023-04-23T18:35:49.397Z,2.30
2023-04-23T18:38:45.676Z,2.10
2023-04-23T18:41:12.584Z,1.73
2023-04-23T18:43:39.383Z,2.00
2023-04-23T18:46:06.330Z,1.90
2023-04-23T18:48:33.527Z,1.73
2023-04-23T18:51:15.265Z,2.03
2023-04-23T18:53:41.997Z,1.97
2023-04-23T18:56:09.084Z,1.90
2023-04-23T18:58:36.071Z,1.80
2023-04-23T19:01:03.011Z,1.80
2023-04-23T19:03:30.302Z,1.77
2023-04-23T19:05:57.826Z,1.83
2023-04-23T19:08:28.602Z,2.30
2023-04-23T19:10:56.459Z,2.27
2023-04-23T19:13:23.547Z,2.10
2023-04-23T19:15:50.582Z,1.67
2023-04-23T19:18:18.525Z,2.00
2023-04-23T19:20:45.511Z,1.70
2023-04-23T19:23:12.646Z,2.10
2023-04-23T19:25:39.484Z,2.00
2023-04-23T19:28:06.236Z,1.90
2023-04-23T19:30:32.988Z,2.00
2023-04-23T19:33:00.100Z,1.73
2023-04-23T19:35:27.267Z,1.97
2023-04-23T19:37:53.998Z,1.83
2023-04-23T19:40:20.845Z,1.60
2023-04-23T19:42:48.011Z,1.60
2023-04-23T19:45:16.583Z,1.53
2023-04-23T19:47:43.501Z,1.63
2023-04-23T19:50:10.567Z,1.50
2023-04-23T19:52:37.725Z,1.67
2023-04-23T19:55:04.799Z,1.53
2023-04-23T19:57:31.561Z,1.50
2023-04-23T19:59:58.217Z,1.40
2023-04-23T20:02:25.056Z,1.70
2023-04-23T20:04:52.181Z,1.87
2023-04-23T20:07:19.272Z,1.60
2023-04-23T20:09:45.957Z,1.83
2023-04-23T20:12:13.860Z,1.50
2023-04-23T20:14:42.472Z,1.60
2023-04-23T20:17:10.722Z,1.37
2023-04-23T20:19:38.326Z,1.30
2023-04-23T20:22:05.595Z,1.37
2023-04-23T20:24:33.461Z,1.20
2023-04-23T20:27:01.539Z,1.23
2023-04-23T20:29:30.521Z,1.17
2023-04-23T20:31:57.706Z,1.20
2023-04-23T20:34:24.402Z,1.20
2023-04-23T20:36:51.201Z,1.20
2023-04-23T20:39:23.952Z,1.13
2023-04-23T20:41:52.260Z,0.90
2023-04-23T20:44:22.566Z,1.30
2023-04-23T20:46:51.160Z,1.20
2023-04-23T20:49:18.354Z,1.20
2023-04-23T20:51:46.251Z,1.20
2023-04-23T20:54:13.057Z,1.30
2023-04-23T20:56:40.194Z,1.30
2023-04-23T20:59:06.931Z,1.20
2023-04-23T21:01:33.703Z,1.40
2023-04-23T21:04:01.483Z,1.20
2023-04-23T21:06:31.069Z,1.20
2023-04-23T21:08:58.208Z,1.20
2023-04-23T21:11:26.100Z,1.10
2023-04-23T21:13:53.432Z,1.40
2023-04-23T21:16:20.537Z,1.30
2023-04-23T21:18:47.666Z,1.20
2023-04-23T21:21:14.330Z,1.40
2023-04-23T21:23:41.099Z,1.30
2023-04-23T21:26:08.360Z,1.40
2023-04-23T21:28:36.388Z,1.23
2023-04-23T21:31:13.745Z,1.20
2023-04-23T21:33:40.566Z,1.23
2023-04-23T21:36:07.680Z,1.20
2023-04-23T21:38:34.577Z,1.50
2023-04-23T21:41:02.180Z,1.60
2023-04-23T21:43:29.622Z,1.23
2023-04-23T21:45:56.748Z,1.30
2023-04-23T21:48:23.845Z,1.60
2023-04-23T21:50:51.649Z,1.33
2023-04-23T21:53:18.730Z,1.00
2023-04-23T21:55:45.900Z,1.20
2023-04-23T21:58:17.038Z,1.10
2023-04-23T22:00:45.052Z,1.47
2023-04-23T22:03:13.184Z,1.00
2023-04-23T22:05:44.506Z,1.17
2023-04-23T22:08:11.631Z,1.13
2023-04-23T22:10:42.950Z,1.47
2023-04-23T22:13:11.077Z,1.23
2023-04-23T22:15:38.398Z,1.10
2023-04-23T22:18:05.632Z,1.10
2023-04-23T22:20:32.592Z,1.17
2023-04-23T22:22:59.386Z,1.00
2023-04-23T22:25:26.303Z,1.20
2023-04-23T22:27:53.106Z,1.00
2023-04-23T22:30:20.211Z,1.30
2023-04-23T22:32:47.119Z,1.00
2023-04-23T22:35:13.984Z,1.20
2023-04-23T22:37:41.141Z,1.20
2023-04-23T22:40:09.444Z,1.10
2023-04-23T22:42:37.261Z,1.00
2023-04-23T22:45:04.822Z,1.10
2023-04-23T22:47:31.761Z,1.00
2023-04-23T22:49:58.829Z,1.47
2023-04-23T22:52:26.044Z,1.17
2023-04-23T22:54:54.811Z,1.27
2023-04-23T22:57:21.586Z,1.30
2023-04-23T22:59:48.241Z,1.10
2023-04-23T23:02:15.126Z,1.40
2023-04-23T23:04:42.290Z,0.97
2023-04-23T23:07:10.004Z,1.17
2023-04-23T23:09:36.662Z,1.00
2023-04-23T23:12:04.647Z,1.20
2023-04-23T23:14:31.917Z,1.10
2023-04-23T23:16:59.086Z,1.10
2023-04-23T23:19:30.840Z,1.30
2023-04-23T23:21:57.947Z,1.27
2023-04-23T23:24:24.848Z,1.13
2023-04-23T23:26:51.500Z,1.30
2023-04-23T23:29:18.525Z,1.23
2023-04-23T23:31:45.594Z,1.20
2023-04-23T23:34:12.735Z,1.20
2023-04-23T23:36:39.478Z,1.30
2023-04-23T23:39:06.867Z,1.27
2023-04-23T23:41:34.051Z,1.30
2023-04-23T23:44:00.835Z,1.57
2023-04-23T23:46:27.950Z,1.20
2023-04-23T23:48:54.787Z,1.40
2023-04-23T23:51:22.047Z,1.47
2023-04-23T23:53:48.883Z,1.37
2023-04-23T23:56:16.071Z,1.40
2023-04-23T23:58:43.162Z,1.50
